Terminal Aerodrome Forecast
Issued by NWS Wilmington, OH

Current Version | Previous Version | Graphics & Text | Print | Product List | Glossary On
Versions: 1 2 3 4 5 6 7 8 9 10 11 12 13 14 15 16 17 18 19 20 21 22 23
000
FTUS41 KILN 251720
TAFCVG
TAF
KCVG 251720Z 2518/2624 27013G23KT P6SM SCT050
     FM260100 28005KT P6SM FEW200
     FM261500 28010G16KT P6SM SCT150
     FM262300 27007KT P6SM BKN100=

USA.gov is the U.S. government's official web portal to all federal, state and local government web resources and services.